Airfield :
LOGIN :

Register | Disclaimer

   EN    FR    IT 

 










Legend :    VFR   Marginal VFR   IFR   Intensive IFR   Very Intensive IFR
Visi :
Ceiling :
>= 8 km
>= 3000ft
5 to 8 km
1000 to 3000 ft
1500m to 5 km
500 to 1000 ft
800 to 1500m
200 to 500 ft
< 800m
< 200 ft
Symbols :   Thunderstorms  Fog  Heavy snow  Heavy precipitations  Wind > 20 kt
SIGMETs :     Misc.  Thunderstorms  Icing  Turbulence  Mountain Waves  Volcanic Ashes






- Airport Elevation : 124 ft
- IATA code : RNS


LFRN - Rennes

CURRENT METAR :
  • 270800Z AUTO 24018G29KT 9999 BKN019 OVC025 13/10 Q0995 TEMPO 29025G45KT 4000 SHRA BKN012

EXPIRED METARs :
  • 270730Z AUTO 24017KT 200V270 9999 -RADZ BKN018 OVC023 12/10 Q0995 TEMPO 29025G45KT 4000 SHRA BKN012
  • 270700Z AUTO 23015KT 9999 -RADZ BKN015 OVC023 12/11 Q0995 TEMPO 29025G45KT 4000 SHRA BKN012
  • 270630Z AUTO 22014KT 9999 OVC016 12/10 Q0995 TEMPO 29025G45KT 4000 SHRA BKN012
  • 270600Z AUTO 21012KT 9999 OVC012 11/10 Q0996 BECMG 26018G35KT BKN020
  • 270530Z AUTO 19014KT 9999 -RA BKN008 BKN013 OVC020 10/10 Q0996 BECMG 26018G35KT BKN020

TAF AMD TAF LFRN
Valid from the 27 at 07:00 until the 28 at 06:00 UTC


270740Z 2707/2806 25015G25KT 9999 BKN020
TEMPO 2707/2708 5000 -RADZ BKN012
BECMG 2707/2708 26018G35KT
BECMG 2708/2710 31018G35KT
PROB40
TEMPO 2708/2710 29025G45KT
PROB40
TEMPO 2708/2712 4000 SHRA BKN012
BECMG 2715/2717 32010KT
BECMG 2718/2720 VRB05KT
BECMG 2803/2805 18010KT 5000 RA BKN015
ATIS : +33 2 99 67 72 50



MET'MAP, your aeronautical weather chart ! - Copyright ORBIFLY December 2007 - Disclaimer

ORBIFLY MET'MAP TEAM :

Programming & Development : Alexandra Zaïnal
Concept & original design : Baudouin d'Aumeries
Assistance for programming : Marc-Olivier Méhu
Technical & hardware support : Manuel Goepfert

Contact : metmap@orbifly.com




SOURCES & CREDITS :

   NOAA